createdAt,value
2022-10-10T00:01:26.329Z,100.00
2022-10-10T00:03:53.699Z,100.00
2022-10-10T00:06:21.530Z,100.00
2022-10-10T00:08:48.402Z,100.00
2022-10-10T00:11:16.963Z,100.00
2022-10-10T00:13:43.952Z,100.00
2022-10-10T00:16:10.757Z,100.00
2022-10-10T00:18:38.783Z,100.00
2022-10-10T00:21:05.617Z,100.00
2022-10-10T00:23:32.085Z,100.00
2022-10-10T00:25:58.950Z,100.00
2022-10-10T00:28:25.427Z,100.00
2022-10-10T00:30:52.213Z,100.00
2022-10-10T00:33:19.101Z,100.00
2022-10-10T00:35:45.639Z,100.00
2022-10-10T00:38:13.621Z,100.00
2022-10-10T00:40:52.565Z,100.00
2022-10-10T00:43:19.055Z,100.00
2022-10-10T00:45:47.952Z,100.00
2022-10-10T00:48:28.196Z,100.00
2022-10-10T00:51:06.335Z,100.00
2022-10-10T00:53:36.571Z,100.00
2022-10-10T00:56:04.088Z,100.00
2022-10-10T00:58:32.095Z,100.00
2022-10-10T01:00:58.870Z,100.00
2022-10-10T01:03:25.939Z,100.00
2022-10-10T01:05:52.549Z,100.00
2022-10-10T01:08:20.742Z,100.00
2022-10-10T01:11:05.443Z,100.00
2022-10-10T01:13:46.838Z,100.00
2022-10-10T01:16:24.939Z,100.00
2022-10-10T01:19:20.684Z,100.00
2022-10-10T01:22:10.782Z,100.00
2022-10-10T01:24:57.535Z,100.00
2022-10-10T01:27:33.500Z,100.00
2022-10-10T01:30:13.277Z,100.00
2022-10-10T01:32:53.995Z,100.00
2022-10-10T01:35:33.423Z,100.00
2022-10-10T01:38:25.314Z,100.00
2022-10-10T01:40:56.329Z,100.00
2022-10-10T01:43:26.303Z,100.00
2022-10-10T01:45:54.033Z,100.00
2022-10-10T01:48:26.285Z,100.00
2022-10-10T01:51:18.805Z,100.00
2022-10-10T01:54:27.240Z,100.00
2022-10-10T01:57:14.082Z,100.00
2022-10-10T02:00:28.443Z,100.00
2022-10-10T02:03:16.515Z,100.00
2022-10-10T02:05:46.702Z,100.00
2022-10-10T02:08:26.425Z,100.00
2022-10-10T02:10:58.218Z,100.00
2022-10-10T02:13:30.250Z,100.00
2022-10-10T02:15:59.876Z,100.00
2022-10-10T02:18:31.722Z,100.00
2022-10-10T02:21:00.092Z,100.00
2022-10-10T02:23:26.750Z,100.00
2022-10-10T02:25:56.492Z,100.00
2022-10-10T02:28:51.924Z,100.00
2022-10-10T02:31:38.061Z,100.00
2022-10-10T02:34:08.922Z,100.00
2022-10-10T02:36:36.375Z,100.00
2022-10-10T02:39:03.461Z,100.00
2022-10-10T02:41:31.915Z,100.00
2022-10-10T02:43:58.491Z,100.00
2022-10-10T02:46:24.974Z,100.00
2022-10-10T02:48:51.443Z,100.00
2022-10-10T02:51:18.372Z,100.00
2022-10-10T02:53:44.837Z,100.00
2022-10-10T02:56:11.375Z,100.00
2022-10-10T02:58:37.816Z,100.00
2022-10-10T03:01:04.314Z,100.00
2022-10-10T03:03:30.767Z,100.00
2022-10-10T03:05:57.182Z,100.00
2022-10-10T03:08:23.615Z,100.00
2022-10-10T03:11:01.474Z,100.00
2022-10-10T03:13:28.210Z,100.00
2022-10-10T03:15:54.660Z,100.00
2022-10-10T03:18:21.808Z,100.00
2022-10-10T03:20:54.753Z,100.00
2022-10-10T03:23:22.590Z,100.00
2022-10-10T03:25:49.115Z,100.00
2022-10-10T03:28:16.144Z,100.00
2022-10-10T03:30:43.020Z,100.00
2022-10-10T03:33:10.026Z,100.00
2022-10-10T03:35:36.587Z,100.00
2022-10-10T03:38:03.074Z,100.00
2022-10-10T03:40:30.359Z,100.00
2022-10-10T03:42:57.119Z,100.00
2022-10-10T03:45:24.272Z,100.00
2022-10-10T03:47:50.931Z,100.00
2022-10-10T03:50:17.611Z,100.00
2022-10-10T03:52:44.125Z,100.00
2022-10-10T03:55:10.540Z,100.00
2022-10-10T03:57:37.003Z,100.00
2022-10-10T04:00:04.131Z,100.00
2022-10-10T04:02:30.544Z,100.00
2022-10-10T04:04:57.025Z,100.00
2022-10-10T04:07:23.567Z,100.00
2022-10-10T04:09:50.260Z,100.00
2022-10-10T04:12:16.917Z,100.00
2022-10-10T04:14:43.402Z,100.00
2022-10-10T04:17:10.071Z,100.00
2022-10-10T04:19:36.523Z,100.00
2022-10-10T04:22:03.206Z,100.00
2022-10-10T04:24:29.752Z,100.00
2022-10-10T04:26:56.251Z,100.00
2022-10-10T04:29:23.000Z,100.00
2022-10-10T04:31:49.547Z,100.00
2022-10-10T04:34:16.137Z,100.00
2022-10-10T04:36:42.721Z,100.00
2022-10-10T04:39:09.293Z,100.00
2022-10-10T04:41:35.695Z,100.00
2022-10-10T04:44:02.172Z,100.00
2022-10-10T04:46:28.609Z,100.00
2022-10-10T04:48:55.095Z,100.00
2022-10-10T04:51:21.776Z,100.00
2022-10-10T04:53:50.386Z,100.00
2022-10-10T04:56:17.294Z,100.00
2022-10-10T04:58:43.894Z,100.00
2022-10-10T05:01:10.372Z,100.00
2022-10-10T05:03:36.831Z,100.00
2022-10-10T05:06:03.390Z,100.00
2022-10-10T05:08:30.458Z,100.00
2022-10-10T05:10:56.979Z,100.00
2022-10-10T05:13:23.436Z,100.00
2022-10-10T05:15:51.865Z,100.00
2022-10-10T05:18:19.499Z,100.00
2022-10-10T05:20:47.760Z,100.00
2022-10-10T05:23:15.193Z,100.00
2022-10-10T05:25:51.422Z,100.00
2022-10-10T05:28:17.969Z,100.00
2022-10-10T05:30:44.450Z,100.00
2022-10-10T05:33:11.289Z,100.00
2022-10-10T05:35:37.889Z,100.00
2022-10-10T05:38:05.287Z,100.00
2022-10-10T05:40:31.809Z,100.00
2022-10-10T05:42:58.282Z,100.00
2022-10-10T05:45:24.767Z,100.00
2022-10-10T05:47:51.199Z,100.00
2022-10-10T05:50:39.290Z,100.00
2022-10-10T05:53:06.832Z,100.00
2022-10-10T05:55:33.846Z,100.00
2022-10-10T05:58:00.256Z,100.00
2022-10-10T06:00:26.732Z,100.00
2022-10-10T06:02:54.737Z,100.00
2022-10-10T06:05:21.485Z,100.00
2022-10-10T06:08:04.632Z,100.00
2022-10-10T06:10:35.878Z,100.00
2022-10-10T06:13:02.348Z,100.00
2022-10-10T06:15:28.860Z,100.00
2022-10-10T06:17:55.454Z,100.00
2022-10-10T06:20:21.930Z,100.00
2022-10-10T06:22:48.739Z,100.00
2022-10-10T06:25:38.220Z,100.00
2022-10-10T06:28:02.235Z,100.00
2022-10-10T06:30:28.861Z,100.00
2022-10-10T06:32:57.063Z,100.00
2022-10-10T06:35:24.203Z,100.00
2022-10-10T06:37:50.813Z,100.00
2022-10-10T06:40:17.389Z,100.00
2022-10-10T06:42:43.818Z,100.00
2022-10-10T06:45:10.491Z,100.00
2022-10-10T06:47:36.945Z,100.00
2022-10-10T06:50:03.716Z,100.00
2022-10-10T06:52:30.133Z,100.00
2022-10-10T06:54:56.637Z,100.00
2022-10-10T06:57:23.112Z,100.00
2022-10-10T06:59:49.529Z,100.00
2022-10-10T07:02:15.987Z,100.00
2022-10-10T07:04:42.597Z,100.00
2022-10-10T07:07:09.587Z,100.00
2022-10-10T07:09:36.012Z,100.00
2022-10-10T07:12:02.438Z,100.00
2022-10-10T07:14:28.832Z,100.00
2022-10-10T07:16:55.241Z,100.00
2022-10-10T07:19:24.623Z,100.00
2022-10-10T07:21:51.439Z,100.00
2022-10-10T07:24:17.908Z,100.00
2022-10-10T07:26:44.334Z,100.00
2022-10-10T07:29:10.748Z,100.00
2022-10-10T07:31:37.232Z,100.00
2022-10-10T07:34:05.937Z,100.00
2022-10-10T07:36:32.620Z,100.00
2022-10-10T07:38:59.105Z,100.00
2022-10-10T07:41:25.564Z,100.00
2022-10-10T07:43:56.274Z,100.00
2022-10-10T07:46:23.342Z,100.00
2022-10-10T07:48:49.968Z,100.00
2022-10-10T07:51:17.140Z,100.00
2022-10-10T07:53:44.299Z,100.00
2022-10-10T07:56:11.628Z,100.00
2022-10-10T07:58:38.872Z,100.00
2022-10-10T08:01:10.577Z,100.00
2022-10-10T08:03:37.770Z,100.00
2022-10-10T08:06:06.605Z,100.00
2022-10-10T08:08:34.633Z,100.00
2022-10-10T08:11:05.628Z,100.00
2022-10-10T08:13:32.365Z,100.00
2022-10-10T08:15:58.868Z,100.00
2022-10-10T08:18:25.535Z,100.00
2022-10-10T08:20:59.984Z,100.00
2022-10-10T08:23:26.683Z,100.00
2022-10-10T08:25:53.957Z,100.00
2022-10-10T08:28:20.604Z,100.00
2022-10-10T08:30:47.281Z,100.00
2022-10-10T08:33:13.804Z,100.00
2022-10-10T08:35:40.252Z,100.00
2022-10-10T08:38:07.431Z,100.00
2022-10-10T08:40:33.992Z,100.00
2022-10-10T08:43:07.482Z,100.00
2022-10-10T08:45:34.964Z,100.00
2022-10-10T08:48:05.537Z,100.00
2022-10-10T08:50:46.619Z,100.00
2022-10-10T08:53:20.720Z,100.00
2022-10-10T08:55:49.015Z,100.00
2022-10-10T08:58:18.797Z,100.00
2022-10-10T09:00:54.815Z,100.00
2022-10-10T09:03:32.592Z,100.00
2022-10-10T09:06:04.955Z,100.00
2022-10-10T09:08:45.261Z,100.00
2022-10-10T09:11:42.575Z,100.00
2022-10-10T09:14:26.774Z,100.00
2022-10-10T09:17:03.242Z,100.00
2022-10-10T09:19:32.590Z,100.00
2022-10-10T09:22:05.187Z,100.00
2022-10-10T09:24:42.544Z,100.00
2022-10-10T09:27:16.717Z,100.00
2022-10-10T09:30:05.527Z,100.00
2022-10-10T09:32:43.497Z,100.00
2022-10-10T09:35:17.811Z,100.00
2022-10-10T09:37:47.653Z,100.00
2022-10-10T09:40:53.982Z,100.00
2022-10-10T09:43:21.561Z,100.00
2022-10-10T09:45:58.619Z,100.00
2022-10-10T09:48:32.823Z,100.00
2022-10-10T09:51:01.353Z,100.00
2022-10-10T09:53:28.134Z,100.00
2022-10-10T09:55:55.497Z,100.00
2022-10-10T09:58:32.734Z,100.00
2022-10-10T10:01:24.171Z,100.00
2022-10-10T10:04:30.404Z,100.00
2022-10-10T10:07:04.687Z,100.00
2022-10-10T10:09:31.217Z,100.00
2022-10-10T10:11:58.386Z,100.00
2022-10-10T10:14:31.289Z,100.00
2022-10-10T10:17:10.756Z,100.00
2022-10-10T10:19:42.679Z,100.00
2022-10-10T10:22:38.077Z,100.00
2022-10-10T10:25:32.270Z,100.00
2022-10-10T10:28:11.143Z,100.00
2022-10-10T10:30:40.221Z,100.00
2022-10-10T10:33:52.753Z,100.00
2022-10-10T10:36:53.648Z,100.00
2022-10-10T10:39:44.602Z,100.00
2022-10-10T10:42:34.298Z,100.00
2022-10-10T10:45:22.222Z,100.00
2022-10-10T10:48:07.979Z,100.00
2022-10-10T10:50:37.421Z,100.00
2022-10-10T10:53:26.640Z,100.00
2022-10-10T10:56:14.770Z,100.00
2022-10-10T11:01:56.663Z,100.00
2022-10-10T11:05:18.788Z,100.00
2022-10-10T11:07:55.535Z,100.00
2022-10-10T11:10:29.939Z,100.00
2022-10-10T11:13:11.472Z,100.00
2022-10-10T11:16:05.417Z,100.00
2022-10-10T11:18:38.912Z,100.00
2022-10-10T11:21:16.589Z,100.00
2022-10-10T11:24:10.714Z,100.00
2022-10-10T11:26:46.876Z,100.00
2022-10-10T11:29:21.684Z,100.00
2022-10-10T11:31:57.669Z,100.00
2022-10-10T11:34:33.585Z,100.00
2022-10-10T11:37:14.150Z,100.00
2022-10-10T11:39:58.196Z,100.00
2022-10-10T11:42:31.806Z,100.00
2022-10-10T11:45:21.103Z,100.00
2022-10-10T11:47:58.194Z,100.00
2022-10-10T11:50:34.462Z,100.00
2022-10-10T11:53:23.544Z,100.00
2022-10-10T11:56:09.287Z,100.00
2022-10-10T11:58:42.760Z,100.00
2022-10-10T12:01:23.704Z,100.00
2022-10-10T12:03:52.383Z,100.00
2022-10-10T12:06:28.369Z,100.00
2022-10-10T12:09:14.058Z,100.00
2022-10-10T12:11:53.519Z,100.00
2022-10-10T12:14:22.526Z,100.00
2022-10-10T12:16:49.295Z,100.00
2022-10-10T12:19:18.103Z,100.00
2022-10-10T12:22:08.253Z,100.00
2022-10-10T12:24:42.529Z,100.00
2022-10-10T12:27:25.100Z,100.00
2022-10-10T12:29:57.520Z,100.00
2022-10-10T12:32:50.188Z,100.00
2022-10-10T12:35:33.910Z,100.00
2022-10-10T12:38:22.168Z,100.00
2022-10-10T12:41:12.057Z,100.00
2022-10-10T12:43:42.300Z,100.00
2022-10-10T12:46:22.183Z,100.00
2022-10-10T12:49:22.665Z,100.00
2022-10-10T12:52:09.298Z,100.00
2022-10-10T12:54:42.834Z,100.00
2022-10-10T12:57:17.879Z,100.00
2022-10-10T12:59:45.107Z,100.00
2022-10-10T13:02:28.212Z,100.00
2022-10-10T13:04:57.952Z,100.00
2022-10-10T13:07:25.548Z,100.00
2022-10-10T13:09:54.811Z,100.00
2022-10-10T13:12:28.026Z,100.00
2022-10-10T13:14:56.184Z,100.00
2022-10-10T13:17:24.112Z,100.00
2022-10-10T13:19:51.653Z,100.00
2022-10-10T13:22:18.698Z,100.00
2022-10-10T13:24:49.400Z,100.00
2022-10-10T13:27:19.664Z,100.00
2022-10-10T13:29:46.869Z,100.00
2022-10-10T13:32:16.930Z,100.00
2022-10-10T13:35:20.587Z,100.00
2022-10-10T13:37:59.447Z,100.00
2022-10-10T13:40:27.362Z,100.00
2022-10-10T13:42:54.623Z,100.00
2022-10-10T13:45:36.377Z,100.00
2022-10-10T13:48:02.762Z,100.00
2022-10-10T13:50:42.908Z,100.00
2022-10-10T13:53:23.031Z,100.00
2022-10-10T13:55:50.603Z,100.00
2022-10-10T13:58:17.309Z,100.00
2022-10-10T14:00:53.559Z,100.00
2022-10-10T14:03:20.110Z,100.00
2022-10-10T14:05:46.759Z,100.00
2022-10-10T14:08:19.595Z,100.00
2022-10-10T14:11:18.979Z,100.00
2022-10-10T14:13:53.914Z,100.00
2022-10-10T14:16:20.351Z,100.00
2022-10-10T14:18:47.400Z,100.00
2022-10-10T14:21:14.106Z,100.00
2022-10-10T14:23:40.698Z,100.00
2022-10-10T14:26:12.875Z,100.00
2022-10-10T14:28:39.823Z,100.00
2022-10-10T14:31:06.774Z,100.00
2022-10-10T14:33:33.294Z,100.00
2022-10-10T14:36:00.596Z,100.00
2022-10-10T14:38:27.421Z,100.00
2022-10-10T14:40:54.762Z,100.00
2022-10-10T14:43:22.632Z,100.00
2022-10-10T14:45:50.722Z,100.00
2022-10-10T14:48:17.945Z,100.00
2022-10-10T14:50:47.217Z,100.00
2022-10-10T14:53:14.953Z,100.00
2022-10-10T14:55:45.732Z,100.00
2022-10-10T14:58:18.019Z,100.00
2022-10-10T15:00:44.859Z,100.00
2022-10-10T15:03:11.865Z,100.00
2022-10-10T15:05:38.884Z,100.00
2022-10-10T15:08:05.633Z,100.00
2022-10-10T15:10:34.111Z,100.00
2022-10-10T15:13:01.528Z,100.00
2022-10-10T15:15:28.060Z,100.00
2022-10-10T15:17:54.555Z,100.00
2022-10-10T15:20:24.062Z,100.00
2022-10-10T15:22:50.491Z,100.00
2022-10-10T15:25:17.010Z,100.00
2022-10-10T15:27:43.607Z,100.00
2022-10-10T15:30:10.839Z,100.00
2022-10-10T15:32:39.308Z,100.00
2022-10-10T15:35:06.162Z,100.00
2022-10-10T15:37:32.835Z,100.00
2022-10-10T15:39:59.596Z,100.00
2022-10-10T15:42:26.182Z,100.00
2022-10-10T15:44:52.680Z,100.00
2022-10-10T15:47:20.270Z,100.00
2022-10-10T15:49:46.788Z,100.00
2022-10-10T15:52:13.790Z,100.00
2022-10-10T15:54:40.403Z,100.00
2022-10-10T15:57:07.049Z,100.00
2022-10-10T15:59:33.513Z,100.00
2022-10-10T16:02:01.384Z,100.00
2022-10-10T16:04:27.946Z,100.00
2022-10-10T16:07:19.262Z,100.00
2022-10-10T16:09:40.955Z,100.00
2022-10-10T16:12:07.759Z,100.00
2022-10-10T16:14:34.583Z,100.00
2022-10-10T16:17:03.209Z,100.00
2022-10-10T16:19:29.750Z,100.00
2022-10-10T16:21:56.463Z,100.00
2022-10-10T16:24:22.900Z,100.00
2022-10-10T16:26:49.425Z,100.00
2022-10-10T16:29:18.474Z,100.00
2022-10-10T16:31:52.591Z,100.00
2022-10-10T16:34:19.488Z,100.00
2022-10-10T16:36:46.460Z,100.00
2022-10-10T16:39:13.162Z,100.00
2022-10-10T16:41:48.485Z,100.00
2022-10-10T16:44:16.691Z,100.00
2022-10-10T16:46:43.429Z,100.00
2022-10-10T16:49:12.067Z,100.00
2022-10-10T16:51:38.973Z,100.00
2022-10-10T16:54:06.361Z,100.00
2022-10-10T16:56:33.382Z,100.00
2022-10-10T16:59:00.322Z,100.00
2022-10-10T17:01:27.086Z,100.00
2022-10-10T17:03:53.758Z,100.00
2022-10-10T17:06:22.513Z,100.00
2022-10-10T17:08:51.608Z,100.00
2022-10-10T17:11:20.411Z,100.00
2022-10-10T17:13:47.551Z,100.00
2022-10-10T17:19:04.888Z,100.00
2022-10-10T17:21:31.530Z,100.00
2022-10-10T17:23:58.771Z,100.00
2022-10-10T17:26:26.279Z,100.00
2022-10-10T17:28:57.421Z,100.00
2022-10-10T17:31:24.276Z,100.00
2022-10-10T17:33:53.894Z,100.00
2022-10-10T17:36:23.438Z,100.00
2022-10-10T17:38:50.525Z,100.00
2022-10-10T17:41:18.726Z,100.00
2022-10-10T17:43:45.589Z,100.00
2022-10-10T17:46:33.734Z,100.00
2022-10-10T17:49:01.912Z,100.00
2022-10-10T17:51:28.458Z,100.00
2022-10-10T17:53:54.887Z,100.00
2022-10-10T17:56:22.585Z,100.00
2022-10-10T17:58:50.147Z,100.00
2022-10-10T18:01:18.931Z,100.00
2022-10-10T18:03:46.012Z,100.00
2022-10-10T18:06:15.180Z,100.00
2022-10-10T18:08:41.925Z,100.00
2022-10-10T18:11:14.028Z,100.00
2022-10-10T18:13:40.624Z,100.00
2022-10-10T18:16:12.880Z,100.00
2022-10-10T18:18:41.202Z,100.00
2022-10-10T18:21:08.466Z,100.00
2022-10-10T18:23:35.888Z,100.00
2022-10-10T18:26:07.804Z,100.00
2022-10-10T18:28:36.948Z,100.00
2022-10-10T18:31:13.445Z,100.00
2022-10-10T18:33:41.356Z,100.00
2022-10-10T18:36:09.868Z,100.00
2022-10-10T18:38:37.795Z,100.00
2022-10-10T18:41:11.292Z,100.00
2022-10-10T18:43:39.503Z,100.00
2022-10-10T18:46:08.627Z,100.00
2022-10-10T18:48:36.018Z,100.00
2022-10-10T18:51:05.374Z,100.00
2022-10-10T18:53:38.134Z,100.00
2022-10-10T18:56:05.804Z,100.00
2022-10-10T18:58:33.992Z,100.00
2022-10-10T19:01:02.716Z,100.00
2022-10-10T19:03:29.688Z,100.00
2022-10-10T19:05:56.614Z,100.00
2022-10-10T19:08:23.203Z,100.00
2022-10-10T19:10:50.749Z,100.00
2022-10-10T19:13:18.307Z,100.00
2022-10-10T19:15:45.636Z,100.00
2022-10-10T19:18:12.218Z,100.00
2022-10-10T19:20:39.715Z,100.00
2022-10-10T19:23:06.353Z,100.00
2022-10-10T19:25:40.329Z,100.00
2022-10-10T19:28:07.313Z,100.00
2022-10-10T19:30:40.963Z,100.00
2022-10-10T19:33:07.436Z,100.00
2022-10-10T19:35:39.426Z,100.00
2022-10-10T19:38:07.151Z,100.00
2022-10-10T19:40:34.140Z,100.00
2022-10-10T19:43:00.708Z,100.00
2022-10-10T19:45:27.270Z,100.00
2022-10-10T19:47:53.753Z,100.00
2022-10-10T19:50:20.247Z,100.00
2022-10-10T19:52:46.655Z,100.00
2022-10-10T19:55:13.089Z,100.00
2022-10-10T19:57:39.512Z,100.00
2022-10-10T20:00:07.139Z,100.00
2022-10-10T20:02:34.062Z,100.00
2022-10-10T20:05:00.539Z,100.00
2022-10-10T20:07:26.935Z,100.00
2022-10-10T20:09:54.244Z,99.66
2022-10-10T20:12:20.654Z,98.97
2022-10-10T20:14:47.121Z,98.90
2022-10-10T20:17:13.853Z,98.14
2022-10-10T20:19:40.284Z,98.23
2022-10-10T20:22:07.216Z,98.01
2022-10-10T20:24:33.708Z,98.07
2022-10-10T20:27:00.123Z,97.75
2022-10-10T20:29:26.643Z,98.22
2022-10-10T20:31:53.313Z,97.88
2022-10-10T20:34:19.775Z,97.66
2022-10-10T20:36:46.306Z,97.33
2022-10-10T20:39:13.808Z,97.26
2022-10-10T20:41:42.042Z,97.33
2022-10-10T20:44:11.652Z,96.76
2022-10-10T20:46:39.480Z,96.60
2022-10-10T20:49:11.386Z,96.61
2022-10-10T20:51:38.289Z,96.74
2022-10-10T20:54:06.599Z,96.54
2022-10-10T20:56:34.165Z,97.36
2022-10-10T20:59:01.182Z,98.08
2022-10-10T21:01:30.255Z,97.41
2022-10-10T21:03:57.051Z,97.08
2022-10-10T21:06:26.553Z,96.97
2022-10-10T21:08:54.021Z,97.09
2022-10-10T21:11:21.811Z,96.83
2022-10-10T21:13:56.028Z,96.97
2022-10-10T21:16:25.383Z,96.73
2022-10-10T21:18:57.414Z,96.76
2022-10-10T21:21:25.431Z,96.94
2022-10-10T21:23:55.985Z,96.10
2022-10-10T21:26:24.616Z,95.95
2022-10-10T21:28:51.314Z,96.46
2022-10-10T21:31:20.944Z,96.78
2022-10-10T21:33:50.655Z,96.43
2022-10-10T21:36:18.950Z,96.30
2022-10-10T21:38:45.300Z,95.80
2022-10-10T21:41:16.248Z,95.24
2022-10-10T21:43:44.632Z,95.62
2022-10-10T21:46:12.701Z,96.11
2022-10-10T21:48:39.505Z,95.40
2022-10-10T21:51:06.135Z,95.10
2022-10-10T21:53:32.836Z,94.81
2022-10-10T21:55:59.316Z,95.23
2022-10-10T21:58:25.884Z,95.53
2022-10-10T22:00:52.333Z,95.56
2022-10-10T22:03:18.812Z,94.73
2022-10-10T22:05:45.328Z,94.75
2022-10-10T22:08:11.753Z,94.68
2022-10-10T22:10:41.011Z,95.38
2022-10-10T22:13:07.631Z,95.19
2022-10-10T22:15:34.228Z,95.04
2022-10-10T22:18:00.630Z,94.84
2022-10-10T22:20:27.270Z,94.72
2022-10-10T22:22:53.655Z,95.44
2022-10-10T22:25:20.206Z,94.67
2022-10-10T22:27:46.636Z,94.86
2022-10-10T22:30:13.966Z,94.68
2022-10-10T22:32:40.424Z,95.44
2022-10-10T22:35:07.305Z,94.67
2022-10-10T22:37:33.783Z,94.99
2022-10-10T22:40:00.195Z,94.58
2022-10-10T22:42:26.601Z,94.90
2022-10-10T22:44:53.064Z,95.13
2022-10-10T22:47:19.479Z,95.26
2022-10-10T22:49:45.892Z,95.10
2022-10-10T22:52:12.291Z,95.25
2022-10-10T22:54:38.700Z,95.29
2022-10-10T22:57:05.131Z,96.01
2022-10-10T22:59:31.549Z,95.73
2022-10-10T23:01:57.945Z,95.66
2022-10-10T23:04:24.369Z,95.62
2022-10-10T23:06:50.913Z,95.81
2022-10-10T23:09:17.712Z,95.90
2022-10-10T23:11:44.152Z,95.21
2022-10-10T23:14:10.707Z,94.89
2022-10-10T23:16:40.521Z,95.55
2022-10-10T23:19:07.462Z,95.21
2022-10-10T23:21:33.934Z,95.73
2022-10-10T23:24:00.359Z,95.82
2022-10-10T23:26:26.876Z,95.75
2022-10-10T23:28:53.420Z,95.62
2022-10-10T23:31:19.874Z,95.55
2022-10-10T23:33:46.349Z,95.45
2022-10-10T23:36:14.705Z,95.93
2022-10-10T23:38:41.526Z,96.33
2022-10-10T23:41:13.427Z,96.80
2022-10-10T23:43:39.877Z,96.50
2022-10-10T23:46:07.162Z,95.94
2022-10-10T23:48:34.219Z,95.97
2022-10-10T23:51:00.898Z,96.47
2022-10-10T23:53:27.327Z,96.10
2022-10-10T23:55:53.751Z,96.42
2022-10-10T23:58:20.182Z,96.36
